sensor_id;sensor_type;location;lat;lon;timestamp;pressure;altitude;pressure_sealevel;temperature;humidity
59487;BME280;45298;54.918;73.504;2022-07-06T00:02:00;98584.63;;;15.88;91.59
59487;BME280;45298;54.918;73.504;2022-07-06T00:04:29;98602.03;;;15.92;91.64
59487;BME280;45298;54.918;73.504;2022-07-06T00:06:58;98603.63;;;15.85;91.39
59487;BME280;45298;54.918;73.504;2022-07-06T00:09:27;98614.50;;;15.83;91.51
59487;BME280;45298;54.918;73.504;2022-07-06T00:11:56;98619.00;;;15.83;91.61
59487;BME280;45298;54.918;73.504;2022-07-06T00:14:24;98611.16;;;15.81;91.80
59487;BME280;45298;54.918;73.504;2022-07-06T00:16:54;98619.56;;;15.86;91.91
59487;BME280;45298;54.918;73.504;2022-07-06T00:19:23;98625.09;;;15.93;91.79
59487;BME280;45298;54.918;73.504;2022-07-06T00:21:51;98622.22;;;15.95;91.84
59487;BME280;45298;54.918;73.504;2022-07-06T00:24:20;98577.56;;;15.70;91.73
59487;BME280;45298;54.918;73.504;2022-07-06T00:26:49;98615.38;;;16.00;92.01
59487;BME280;45298;54.918;73.504;2022-07-06T00:29:18;98620.06;;;16.07;92.08
59487;BME280;45298;54.918;73.504;2022-07-06T00:31:47;98625.91;;;16.10;92.12
59487;BME280;45298;54.918;73.504;2022-07-06T00:34:16;98620.25;;;16.13;92.17
59487;BME280;45298;54.918;73.504;2022-07-06T00:36:45;98624.44;;;16.16;91.81
59487;BME280;45298;54.918;73.504;2022-07-06T00:39:14;98623.94;;;16.21;92.07
59487;BME280;45298;54.918;73.504;2022-07-06T00:41:43;98613.38;;;16.19;92.09
59487;BME280;45298;54.918;73.504;2022-07-06T00:44:12;98629.78;;;16.33;91.59
59487;BME280;45298;54.918;73.504;2022-07-06T00:46:41;98635.31;;;16.39;91.61
59487;BME280;45298;54.918;73.504;2022-07-06T00:49:09;98627.09;;;16.41;91.40
59487;BME280;45298;54.918;73.504;2022-07-06T00:51:59;98632.78;;;16.38;91.23
59487;BME280;45298;54.918;73.504;2022-07-06T00:54:30;98655.69;;;16.49;91.66
59487;BME280;45298;54.918;73.504;2022-07-06T00:57:00;98646.50;;;16.43;91.87
59487;BME280;45298;54.918;73.504;2022-07-06T00:59:29;98635.31;;;16.39;91.68
59487;BME280;45298;54.918;73.504;2022-07-06T01:01:58;98658.03;;;16.52;91.00
59487;BME280;45298;54.918;73.504;2022-07-06T01:04:28;98666.59;;;16.55;91.24
59487;BME280;45298;54.918;73.504;2022-07-06T01:06:57;98663.72;;;16.57;90.38
59487;BME280;45298;54.918;73.504;2022-07-06T01:09:27;98667.25;;;16.66;90.83
59487;BME280;45298;54.918;73.504;2022-07-06T01:11:56;98666.72;;;16.79;91.01
59487;BME280;45298;54.918;73.504;2022-07-06T01:14:25;98659.22;;;16.74;90.70
59487;BME280;45298;54.918;73.504;2022-07-06T01:16:54;98668.88;;;16.83;90.05
59487;BME280;45298;54.918;73.504;2022-07-06T01:19:22;98678.25;;;16.79;89.96
59487;BME280;45298;54.918;73.504;2022-07-06T01:21:52;98679.94;;;16.80;89.66
59487;BME280;45298;54.918;73.504;2022-07-06T01:24:20;98693.00;;;16.91;89.15
59487;BME280;45298;54.918;73.504;2022-07-06T01:26:49;98703.56;;;17.01;89.37
59487;BME280;45298;54.918;73.504;2022-07-06T01:29:19;98698.19;;;17.01;89.57
59487;BME280;45298;54.918;73.504;2022-07-06T01:31:49;98697.69;;;16.98;89.42
59487;BME280;45298;54.918;73.504;2022-07-06T01:34:19;98708.06;;;17.01;89.61
59487;BME280;45298;54.918;73.504;2022-07-06T01:36:49;98713.41;;;17.09;89.08
59487;BME280;45298;54.918;73.504;2022-07-06T01:39:19;98703.88;;;16.98;89.40
59487;BME280;45298;54.918;73.504;2022-07-06T01:41:49;98723.09;;;17.18;89.44
59487;BME280;45298;54.918;73.504;2022-07-06T01:44:17;98711.69;;;17.25;88.60
59487;BME280;45298;54.918;73.504;2022-07-06T01:46:46;98700.78;;;17.26;88.52
59487;BME280;45298;54.918;73.504;2022-07-06T01:49:16;98680.22;;;17.27;88.70
59487;BME280;45298;54.918;73.504;2022-07-06T01:51:45;98711.25;;;17.61;88.39
59487;BME280;45298;54.918;73.504;2022-07-06T01:54:15;98712.25;;;17.60;87.51
59487;BME280;45298;54.918;73.504;2022-07-06T01:56:44;98718.25;;;17.70;87.69
59487;BME280;45298;54.918;73.504;2022-07-06T01:59:12;98720.06;;;17.78;86.85
59487;BME280;45298;54.918;73.504;2022-07-06T02:01:41;98734.63;;;17.83;87.43
59487;BME280;45298;54.918;73.504;2022-07-06T02:04:12;98712.91;;;17.70;87.96
59487;BME280;45298;54.918;73.504;2022-07-06T02:06:41;98712.91;;;17.70;87.29
59487;BME280;45298;54.918;73.504;2022-07-06T02:09:12;98732.34;;;17.72;87.73
59487;BME280;45298;54.918;73.504;2022-07-06T02:11:41;98731.66;;;17.70;87.02
59487;BME280;45298;54.918;73.504;2022-07-06T02:14:10;98729.31;;;17.67;87.45
59487;BME280;45298;54.918;73.504;2022-07-06T02:16:40;98730.66;;;17.71;87.86
59487;BME280;45298;54.918;73.504;2022-07-06T02:19:09;98756.06;;;17.83;87.92
59487;BME280;45298;54.918;73.504;2022-07-06T02:21:38;98739.88;;;17.68;86.92
59487;BME280;45298;54.918;73.504;2022-07-06T02:24:06;98748.91;;;17.67;86.32
59487;BME280;45298;54.918;73.504;2022-07-06T02:26:35;98751.44;;;17.69;86.14
59487;BME280;45298;54.918;73.504;2022-07-06T02:29:04;98774.88;;;17.75;86.40
59487;BME280;45298;54.918;73.504;2022-07-06T02:31:33;98768.88;;;17.73;86.10
59487;BME280;45298;54.918;73.504;2022-07-06T02:34:02;98761.31;;;17.77;86.22
59487;BME280;45298;54.918;73.504;2022-07-06T02:36:32;98760.78;;;17.81;86.38
59487;BME280;45298;54.918;73.504;2022-07-06T02:39:01;98763.78;;;17.78;86.41
59487;BME280;45298;54.918;73.504;2022-07-06T02:41:30;98762.78;;;17.79;85.93
59487;BME280;45298;54.918;73.504;2022-07-06T02:44:01;98763.13;;;17.85;86.53
59487;BME280;45298;54.918;73.504;2022-07-06T02:46:32;98739.72;;;17.70;87.04
59487;BME280;45298;54.918;73.504;2022-07-06T02:49:01;98778.69;;;17.89;86.36
59487;BME280;45298;54.918;73.504;2022-07-06T02:51:30;98778.84;;;17.88;86.14
59487;BME280;45298;54.918;73.504;2022-07-06T02:53:58;98752.94;;;17.72;85.90
59487;BME280;45298;54.918;73.504;2022-07-06T02:56:27;98766.13;;;17.81;85.89
59487;BME280;45298;54.918;73.504;2022-07-06T02:58:58;98785.03;;;17.88;85.84
59487;BME280;45298;54.918;73.504;2022-07-06T03:01:27;98773.84;;;17.76;86.28
59487;BME280;45298;54.918;73.504;2022-07-06T03:03:55;98748.81;;;17.52;86.04
59487;BME280;45298;54.918;73.504;2022-07-06T03:06:25;98764.88;;;17.61;85.97
59487;BME280;45298;54.918;73.504;2022-07-06T03:08:54;98794.97;;;17.79;85.82
59487;BME280;45298;54.918;73.504;2022-07-06T03:11:23;98784.56;;;17.85;86.48
59487;BME280;45298;54.918;73.504;2022-07-06T03:13:52;98784.72;;;17.91;86.48
59487;BME280;45298;54.918;73.504;2022-07-06T03:16:21;98779.81;;;18.03;86.47
59487;BME280;45298;54.918;73.504;2022-07-06T03:18:50;98780.09;;;18.17;86.52
59487;BME280;45298;54.918;73.504;2022-07-06T03:21:19;98760.28;;;18.18;85.27
59487;BME280;45298;54.918;73.504;2022-07-06T03:23:48;98754.66;;;18.12;84.26
59487;BME280;45298;54.918;73.504;2022-07-06T03:26:17;98793.63;;;18.55;84.47
59487;BME280;45298;54.918;73.504;2022-07-06T03:28:46;98786.22;;;18.57;84.24
59487;BME280;45298;54.918;73.504;2022-07-06T03:31:15;98781.88;;;18.56;84.35
59487;BME280;45298;54.918;73.504;2022-07-06T03:33:45;98803.06;;;18.74;83.72
59487;BME280;45298;54.918;73.504;2022-07-06T03:36:15;98806.19;;;18.86;83.09
59487;BME280;45298;54.918;73.504;2022-07-06T03:38:44;98810.84;;;18.92;83.46
59487;BME280;45298;54.918;73.504;2022-07-06T03:41:13;98804.44;;;18.93;83.39
59487;BME280;45298;54.918;73.504;2022-07-06T03:43:46;98784.84;;;18.84;83.55
59487;BME280;45298;54.918;73.504;2022-07-06T03:46:16;98802.94;;;18.99;82.89
59487;BME280;45298;54.918;73.504;2022-07-06T03:48:48;98799.59;;;18.97;82.58
59487;BME280;45298;54.918;73.504;2022-07-06T03:51:18;98806.91;;;19.03;82.69
59487;BME280;45298;54.918;73.504;2022-07-06T03:53:48;98806.03;;;19.11;83.10
59487;BME280;45298;54.918;73.504;2022-07-06T03:56:17;98820.03;;;19.21;82.39
59487;BME280;45298;54.918;73.504;2022-07-06T03:59:08;98753.72;;;18.75;82.60
59487;BME280;45298;54.918;73.504;2022-07-06T04:01:38;98790.16;;;19.01;82.98
59487;BME280;45298;54.918;73.504;2022-07-06T04:04:09;98807.09;;;19.01;82.09
59487;BME280;45298;54.918;73.504;2022-07-06T04:06:45;98833.91;;;19.10;81.63
59487;BME280;45298;54.918;73.504;2022-07-06T04:09:14;98825.34;;;19.06;82.32
59487;BME280;45298;54.918;73.504;2022-07-06T04:11:47;98817.84;;;19.01;82.01
59487;BME280;45298;54.918;73.504;2022-07-06T04:14:16;98816.81;;;19.02;81.46
59487;BME280;45298;54.918;73.504;2022-07-06T04:16:45;98837.47;;;19.25;81.84
59487;BME280;45298;54.918;73.504;2022-07-06T04:19:15;98820.50;;;19.25;81.85
59487;BME280;45298;54.918;73.504;2022-07-06T04:21:44;98830.94;;;19.43;81.43
59487;BME280;45298;54.918;73.504;2022-07-06T04:24:13;98845.94;;;19.52;80.93
59487;BME280;45298;54.918;73.504;2022-07-06T04:26:43;98830.22;;;19.49;80.60
59487;BME280;45298;54.918;73.504;2022-07-06T04:29:13;98840.56;;;19.52;79.62
59487;BME280;45298;54.918;73.504;2022-07-06T04:31:44;98839.19;;;19.56;79.60
59487;BME280;45298;54.918;73.504;2022-07-06T04:34:15;98831.22;;;19.63;79.17
59487;BME280;45298;54.918;73.504;2022-07-06T04:36:44;98834.28;;;19.75;79.58
59487;BME280;45298;54.918;73.504;2022-07-06T04:39:14;98840.41;;;19.84;79.51
59487;BME280;45298;54.918;73.504;2022-07-06T04:41:42;98846.66;;;19.84;78.70
59487;BME280;45298;54.918;73.504;2022-07-06T04:44:12;98855.38;;;20.01;78.29
59487;BME280;45298;54.918;73.504;2022-07-06T04:46:41;98846.50;;;20.16;77.39
59487;BME280;45298;54.918;73.504;2022-07-06T04:49:10;98861.22;;;20.35;76.26
59487;BME280;45298;54.918;73.504;2022-07-06T04:51:39;98849.50;;;20.43;75.05
59487;BME280;45298;54.918;73.504;2022-07-06T04:54:08;98873.84;;;20.71;75.75
59487;BME280;45298;54.918;73.504;2022-07-06T04:56:37;98853.81;;;20.74;75.88
59487;BME280;45298;54.918;73.504;2022-07-06T04:59:06;98864.31;;;20.83;76.55
59487;BME280;45298;54.918;73.504;2022-07-06T05:01:35;98885.88;;;21.05;76.40
59487;BME280;45298;54.918;73.504;2022-07-06T05:04:07;98873.59;;;21.03;75.33
59487;BME280;45298;54.918;73.504;2022-07-06T05:06:36;98876.31;;;21.03;74.36
59487;BME280;45298;54.918;73.504;2022-07-06T05:09:06;98868.41;;;21.01;72.22
59487;BME280;45298;54.918;73.504;2022-07-06T05:11:35;98879.84;;;21.03;73.03
59487;BME280;45298;54.918;73.504;2022-07-06T05:14:05;98883.69;;;21.16;71.96
59487;BME280;45298;54.918;73.504;2022-07-06T05:16:34;98891.19;;;21.20;73.13
59487;BME280;45298;54.918;73.504;2022-07-06T05:19:04;98895.63;;;21.28;72.01
59487;BME280;45298;54.918;73.504;2022-07-06T05:21:33;98893.72;;;21.22;71.83
59487;BME280;45298;54.918;73.504;2022-07-06T05:24:02;98895.44;;;21.29;71.55
59487;BME280;45298;54.918;73.504;2022-07-06T05:26:32;98886.75;;;21.34;72.26
59487;BME280;45298;54.918;73.504;2022-07-06T05:29:01;98884.72;;;21.36;71.10
59487;BME280;45298;54.918;73.504;2022-07-06T05:31:30;98911.88;;;21.56;72.87
59487;BME280;45298;54.918;73.504;2022-07-06T05:33:59;98922.97;;;21.68;70.83
59487;BME280;45298;54.918;73.504;2022-07-06T05:36:28;98922.19;;;21.74;70.37
59487;BME280;45298;54.918;73.504;2022-07-06T05:38:58;98922.09;;;21.89;71.27
59487;BME280;45298;54.918;73.504;2022-07-06T05:41:28;98915.28;;;21.94;69.54
59487;BME280;45298;54.918;73.504;2022-07-06T05:44:00;98932.75;;;21.98;68.07
59487;BME280;45298;54.918;73.504;2022-07-06T05:46:29;98924.50;;;21.78;69.55
59487;BME280;45298;54.918;73.504;2022-07-06T05:48:58;98926.56;;;21.76;68.48
59487;BME280;45298;54.918;73.504;2022-07-06T05:51:56;98935.63;;;21.68;70.09
59487;BME280;45298;54.918;73.504;2022-07-06T05:54:26;98934.34;;;21.64;68.39
59487;BME280;45298;54.918;73.504;2022-07-06T05:56:54;98948.53;;;21.72;70.73
59487;BME280;45298;54.918;73.504;2022-07-06T05:59:24;98938.22;;;21.76;71.74
59487;BME280;45298;54.918;73.504;2022-07-06T06:01:53;98942.81;;;21.82;70.48
59487;BME280;45298;54.918;73.504;2022-07-06T06:04:24;98954.84;;;21.80;68.70
59487;BME280;45298;54.918;73.504;2022-07-06T06:06:55;98953.97;;;21.79;67.87
59487;BME280;45298;54.918;73.504;2022-07-06T06:09:24;98951.50;;;21.78;69.14
59487;BME280;45298;54.918;73.504;2022-07-06T06:11:53;98939.84;;;21.77;70.74
59487;BME280;45298;54.918;73.504;2022-07-06T06:14:22;98940.31;;;21.81;70.77
59487;BME280;45298;54.918;73.504;2022-07-06T06:16:51;98944.91;;;21.87;68.47
59487;BME280;45298;54.918;73.504;2022-07-06T06:19:20;98941.97;;;21.82;68.74
59487;BME280;45298;54.918;73.504;2022-07-06T06:21:49;98947.81;;;21.85;70.30
59487;BME280;45298;54.918;73.504;2022-07-06T06:24:19;98948.84;;;21.84;71.05
59487;BME280;45298;54.918;73.504;2022-07-06T06:26:48;98956.34;;;21.89;71.12
59487;BME280;45298;54.918;73.504;2022-07-06T06:29:17;98943.00;;;21.81;71.15
59487;BME280;45298;54.918;73.504;2022-07-06T06:31:46;98935.00;;;21.66;70.49
59487;BME280;45298;54.918;73.504;2022-07-06T06:34:15;98933.88;;;21.60;69.88
59487;BME280;45298;54.918;73.504;2022-07-06T06:36:43;98963.44;;;21.68;70.48
59487;BME280;45298;54.918;73.504;2022-07-06T06:39:12;98946.00;;;21.64;69.02
59487;BME280;45298;54.918;73.504;2022-07-06T06:41:41;98943.19;;;21.57;68.56
59487;BME280;45298;54.918;73.504;2022-07-06T06:44:10;98965.69;;;21.65;67.21
59487;BME280;45298;54.918;73.504;2022-07-06T06:46:41;98961.97;;;21.66;68.77
59487;BME280;45298;54.918;73.504;2022-07-06T06:49:10;98967.44;;;21.72;67.62
59487;BME280;45298;54.918;73.504;2022-07-06T06:51:39;98953.44;;;21.62;67.31
59487;BME280;45298;54.918;73.504;2022-07-06T06:54:09;98968.72;;;21.77;68.73
59487;BME280;45298;54.918;73.504;2022-07-06T06:56:38;98975.44;;;21.87;67.83
59487;BME280;45298;54.918;73.504;2022-07-06T06:59:07;98962.09;;;21.79;67.15
59487;BME280;45298;54.918;73.504;2022-07-06T07:01:45;98972.19;;;21.70;67.02
59487;BME280;45298;54.918;73.504;2022-07-06T07:04:22;98978.38;;;21.64;67.01
59487;BME280;45298;54.918;73.504;2022-07-06T07:06:51;98969.28;;;21.50;66.39
59487;BME280;45298;54.918;73.504;2022-07-06T07:09:20;98977.22;;;21.58;67.81
59487;BME280;45298;54.918;73.504;2022-07-06T07:11:49;98980.41;;;21.40;67.17
59487;BME280;45298;54.918;73.504;2022-07-06T07:14:18;98980.38;;;21.19;68.35
59487;BME280;45298;54.918;73.504;2022-07-06T07:16:46;98977.94;;;21.24;67.95
59487;BME280;45298;54.918;73.504;2022-07-06T07:19:15;98971.69;;;21.23;68.00
59487;BME280;45298;54.918;73.504;2022-07-06T07:21:44;98972.25;;;21.34;68.02
59487;BME280;45298;54.918;73.504;2022-07-06T07:24:13;98975.69;;;21.27;67.81
59487;BME280;45298;54.918;73.504;2022-07-06T07:26:42;98969.00;;;21.23;67.05
59487;BME280;45298;54.918;73.504;2022-07-06T07:29:10;98955.72;;;21.22;65.86
59487;BME280;45298;54.918;73.504;2022-07-06T07:31:39;98955.09;;;21.20;65.13
59487;BME280;45298;54.918;73.504;2022-07-06T07:34:08;98954.50;;;21.24;66.92
59487;BME280;45298;54.918;73.504;2022-07-06T07:36:37;98975.50;;;21.51;67.73
59487;BME280;45298;54.918;73.504;2022-07-06T07:39:08;98982.34;;;21.68;68.21
59487;BME280;45298;54.918;73.504;2022-07-06T07:41:37;98979.78;;;21.82;66.43
59487;BME280;45298;54.918;73.504;2022-07-06T07:44:06;98985.47;;;21.94;67.43
59487;BME280;45298;54.918;73.504;2022-07-06T07:46:34;98984.09;;;22.04;65.50
59487;BME280;45298;54.918;73.504;2022-07-06T07:49:03;98989.72;;;22.10;65.48
59487;BME280;45298;54.918;73.504;2022-07-06T07:51:34;98979.97;;;22.09;65.98
59487;BME280;45298;54.918;73.504;2022-07-06T07:54:05;98984.94;;;22.05;66.49
59487;BME280;45298;54.918;73.504;2022-07-06T07:56:34;98984.03;;;21.98;66.70
59487;BME280;45298;54.918;73.504;2022-07-06T07:59:03;98997.34;;;21.99;66.46
59487;BME280;45298;54.918;73.504;2022-07-06T08:01:32;98997.16;;;22.01;68.17
59487;BME280;45298;54.918;73.504;2022-07-06T08:04:01;98990.22;;;21.92;67.83
59487;BME280;45298;54.918;73.504;2022-07-06T08:06:31;98996.56;;;22.06;68.41
59487;BME280;45298;54.918;73.504;2022-07-06T08:09:01;99002.53;;;22.29;67.62
59487;BME280;45298;54.918;73.504;2022-07-06T08:11:34;99003.06;;;22.75;67.61
59487;BME280;45298;54.918;73.504;2022-07-06T08:14:05;99007.19;;;23.19;68.39
59487;BME280;45298;54.918;73.504;2022-07-06T08:16:34;99009.97;;;23.46;65.57
59487;BME280;45298;54.918;73.504;2022-07-06T08:19:06;99011.91;;;23.79;62.97
59487;BME280;45298;54.918;73.504;2022-07-06T08:21:37;99012.97;;;24.05;63.02
59487;BME280;45298;54.918;73.504;2022-07-06T08:24:07;99001.34;;;23.98;64.39
59487;BME280;45298;54.918;73.504;2022-07-06T08:26:36;99011.75;;;24.14;63.99
59487;BME280;45298;54.918;73.504;2022-07-06T08:29:05;98999.63;;;24.37;62.91
59487;BME280;45298;54.918;73.504;2022-07-06T08:31:34;99006.25;;;24.55;63.51
59487;BME280;45298;54.918;73.504;2022-07-06T08:34:22;98956.28;;;24.37;63.51
59487;BME280;45298;54.918;73.504;2022-07-06T08:36:56;99016.00;;;24.83;62.73
59487;BME280;45298;54.918;73.504;2022-07-06T08:39:25;99000.50;;;24.97;61.62
59487;BME280;45298;54.918;73.504;2022-07-06T08:41:55;99005.44;;;25.20;59.92
59487;BME280;45298;54.918;73.504;2022-07-06T08:44:25;99008.59;;;25.10;60.08
59487;BME280;45298;54.918;73.504;2022-07-06T08:46:57;99025.38;;;25.32;60.08
59487;BME280;45298;54.918;73.504;2022-07-06T08:49:32;99015.78;;;25.37;58.72
59487;BME280;45298;54.918;73.504;2022-07-06T08:52:03;99021.16;;;25.50;59.24
59487;BME280;45298;54.918;73.504;2022-07-06T08:54:33;99029.50;;;25.42;59.62
59487;BME280;45298;54.918;73.504;2022-07-06T08:57:03;99023.03;;;25.04;59.15
59487;BME280;45298;54.918;73.504;2022-07-06T08:59:33;99030.19;;;24.78;60.92
59487;BME280;45298;54.918;73.504;2022-07-06T09:02:03;99051.09;;;24.51;60.83
59487;BME280;45298;54.918;73.504;2022-07-06T09:04:33;99038.19;;;24.26;62.84
59487;BME280;45298;54.918;73.504;2022-07-06T09:07:04;99041.53;;;24.14;63.84
59487;BME280;45298;54.918;73.504;2022-07-06T09:09:33;99027.38;;;23.99;63.38
59487;BME280;45298;54.918;73.504;2022-07-06T09:12:11;99036.97;;;24.22;62.50
59487;BME280;45298;54.918;73.504;2022-07-06T09:14:41;99049.00;;;24.53;61.94
59487;BME280;45298;54.918;73.504;2022-07-06T09:17:12;99052.75;;;24.79;61.24
59487;BME280;45298;54.918;73.504;2022-07-06T09:19:45;99045.47;;;24.59;61.26
59487;BME280;45298;54.918;73.504;2022-07-06T09:22:31;99044.88;;;24.23;61.99
59487;BME280;45298;54.918;73.504;2022-07-06T09:25:12;99040.28;;;24.04;63.32
59487;BME280;45298;54.918;73.504;2022-07-06T09:27:43;99046.09;;;23.94;62.32
59487;BME280;45298;54.918;73.504;2022-07-06T09:30:15;99055.66;;;23.90;63.50
59487;BME280;45298;54.918;73.504;2022-07-06T09:32:55;99047.56;;;24.30;61.52
59487;BME280;45298;54.918;73.504;2022-07-06T09:40:38;99049.84;;;24.47;61.74
59487;BME280;45298;54.918;73.504;2022-07-06T09:43:11;99057.56;;;24.50;62.42
59487;BME280;45298;54.918;73.504;2022-07-06T09:45:42;99058.41;;;24.50;62.57
59487;BME280;45298;54.918;73.504;2022-07-06T09:48:14;99062.34;;;24.54;62.92
59487;BME280;45298;54.918;73.504;2022-07-06T09:51:03;99075.28;;;24.39;62.46
59487;BME280;45298;54.918;73.504;2022-07-06T09:53:35;99061.94;;;24.37;62.52
59487;BME280;45298;54.918;73.504;2022-07-06T09:56:04;99067.34;;;24.51;62.05
59487;BME280;45298;54.918;73.504;2022-07-06T09:58:38;99066.09;;;24.73;62.51
59487;BME280;45298;54.918;73.504;2022-07-06T10:01:27;99081.00;;;25.10;62.00
59487;BME280;45298;54.918;73.504;2022-07-06T10:03:58;99060.13;;;25.17;60.32
59487;BME280;45298;54.918;73.504;2022-07-06T10:06:28;99082.56;;;25.38;61.25
59487;BME280;45298;54.918;73.504;2022-07-06T10:08:58;99089.09;;;25.30;60.19
59487;BME280;45298;54.918;73.504;2022-07-06T10:11:29;99087.06;;;25.12;59.99
59487;BME280;45298;54.918;73.504;2022-07-06T10:14:00;99087.09;;;24.98;61.14
59487;BME280;45298;54.918;73.504;2022-07-06T10:16:30;99087.78;;;24.80;60.87
59487;BME280;45298;54.918;73.504;2022-07-06T10:19:02;99090.69;;;24.52;61.65
59487;BME280;45298;54.918;73.504;2022-07-06T10:21:35;99088.44;;;24.22;60.80
59487;BME280;45298;54.918;73.504;2022-07-06T10:24:08;99092.56;;;23.97;61.60
59487;BME280;45298;54.918;73.504;2022-07-06T10:26:37;99108.13;;;23.75;61.72
59487;BME280;45298;54.918;73.504;2022-07-06T10:29:06;99113.28;;;23.57;63.70
59487;BME280;45298;54.918;73.504;2022-07-06T10:31:40;99101.97;;;23.46;64.52
59487;BME280;45298;54.918;73.504;2022-07-06T10:34:14;99104.88;;;23.31;64.74
59487;BME280;45298;54.918;73.504;2022-07-06T10:36:49;99113.25;;;23.15;64.05
59487;BME280;45298;54.918;73.504;2022-07-06T10:39:36;99104.81;;;22.89;64.76
59487;BME280;45298;54.918;73.504;2022-07-06T10:42:46;99124.75;;;22.88;65.24
59487;BME280;45298;54.918;73.504;2022-07-06T10:48:18;99083.81;;;22.56;65.46
59487;BME280;45298;54.918;73.504;2022-07-06T10:50:54;99108.03;;;22.71;66.04
59487;BME280;45298;54.918;73.504;2022-07-06T10:53:40;99100.84;;;22.57;65.30
59487;BME280;45298;54.918;73.504;2022-07-06T10:56:10;99115.69;;;22.68;66.33
59487;BME280;45298;54.918;73.504;2022-07-06T11:01:10;99098.91;;;22.72;66.10
59487;BME280;45298;54.918;73.504;2022-07-06T11:04:04;99105.34;;;22.71;65.32
59487;BME280;45298;54.918;73.504;2022-07-06T11:06:39;99107.75;;;22.59;66.32
59487;BME280;45298;54.918;73.504;2022-07-06T11:09:10;99109.56;;;22.52;66.34
59487;BME280;45298;54.918;73.504;2022-07-06T11:11:42;99106.28;;;22.35;66.21
59487;BME280;45298;54.918;73.504;2022-07-06T11:19:23;99122.56;;;22.20;67.34
59487;BME280;45298;54.918;73.504;2022-07-06T11:22:06;99125.38;;;22.33;67.33
59487;BME280;45298;54.918;73.504;2022-07-06T11:24:37;99130.00;;;22.61;66.27
59487;BME280;45298;54.918;73.504;2022-07-06T11:27:08;99133.97;;;22.66;66.18
59487;BME280;45298;54.918;73.504;2022-07-06T11:29:37;99139.19;;;22.67;65.36
59487;BME280;45298;54.918;73.504;2022-07-06T11:32:09;99137.00;;;22.56;65.44
59487;BME280;45298;54.918;73.504;2022-07-06T11:34:41;99135.69;;;22.45;64.50
59487;BME280;45298;54.918;73.504;2022-07-06T11:37:13;99137.34;;;22.46;65.68
59487;BME280;45298;54.918;73.504;2022-07-06T11:39:43;99134.50;;;22.54;65.68
59487;BME280;45298;54.918;73.504;2022-07-06T11:42:14;99131.00;;;22.54;65.69
59487;BME280;45298;54.918;73.504;2022-07-06T11:44:43;99133.53;;;22.62;65.47
59487;BME280;45298;54.918;73.504;2022-07-06T11:47:13;99127.69;;;22.58;64.59
59487;BME280;45298;54.918;73.504;2022-07-06T11:49:51;99148.38;;;22.73;64.64
59487;BME280;45298;54.918;73.504;2022-07-06T11:52:21;99145.41;;;22.68;64.25
59487;BME280;45298;54.918;73.504;2022-07-06T11:54:57;99144.69;;;22.52;65.25
59487;BME280;45298;54.918;73.504;2022-07-06T11:57:31;99137.59;;;22.51;65.19
59487;BME280;45298;54.918;73.504;2022-07-06T12:00:00;99136.06;;;22.42;64.66
59487;BME280;45298;54.918;73.504;2022-07-06T12:02:38;99147.63;;;22.36;65.04
59487;BME280;45298;54.918;73.504;2022-07-06T12:05:07;99131.25;;;22.15;65.38
59487;BME280;45298;54.918;73.504;2022-07-06T12:07:36;99123.97;;;22.16;64.88
59487;BME280;45298;54.918;73.504;2022-07-06T12:10:06;99137.84;;;22.34;65.26
59487;BME280;45298;54.918;73.504;2022-07-06T12:12:34;99155.69;;;22.51;64.45
59487;BME280;45298;54.918;73.504;2022-07-06T12:15:03;99153.38;;;22.47;65.46
59487;BME280;45298;54.918;73.504;2022-07-06T12:17:32;99160.75;;;22.39;65.24
59487;BME280;45298;54.918;73.504;2022-07-06T12:20:01;99161.78;;;22.38;65.79
59487;BME280;45298;54.918;73.504;2022-07-06T12:22:29;99160.22;;;22.28;66.20
59487;BME280;45298;54.918;73.504;2022-07-06T12:24:58;99160.38;;;22.20;65.60
59487;BME280;45298;54.918;73.504;2022-07-06T12:27:33;99161.72;;;22.09;65.37
59487;BME280;45298;54.918;73.504;2022-07-06T12:30:12;99172.25;;;22.04;65.26
59487;BME280;45298;54.918;73.504;2022-07-06T12:33:14;99175.91;;;21.96;66.27
59487;BME280;45298;54.918;73.504;2022-07-06T12:35:44;99181.69;;;21.93;66.10
59487;BME280;45298;54.918;73.504;2022-07-06T12:38:26;99183.50;;;21.86;65.98
59487;BME280;45298;54.918;73.504;2022-07-06T12:40:55;99180.81;;;21.86;66.18
59487;BME280;45298;54.918;73.504;2022-07-06T12:43:40;99191.50;;;21.79;66.33
59487;BME280;45298;54.918;73.504;2022-07-06T12:46:29;99188.28;;;21.69;65.96
59487;BME280;45298;54.918;73.504;2022-07-06T12:49:15;99181.47;;;21.58;66.56
59487;BME280;45298;54.918;73.504;2022-07-06T12:51:54;99205.84;;;21.65;66.94
59487;BME280;45298;54.918;73.504;2022-07-06T12:54:47;99193.66;;;21.54;67.14
59487;BME280;45298;54.918;73.504;2022-07-06T12:57:21;99211.97;;;21.73;66.90
59487;BME280;45298;54.918;73.504;2022-07-06T13:00:00;99190.94;;;21.54;66.44
59487;BME280;45298;54.918;73.504;2022-07-06T13:02:31;99195.78;;;21.58;65.91
59487;BME280;45298;54.918;73.504;2022-07-06T13:05:25;99206.50;;;21.52;66.42
59487;BME280;45298;54.918;73.504;2022-07-06T13:07:59;99193.56;;;21.32;66.56
59487;BME280;45298;54.918;73.504;2022-07-06T13:10:39;99197.28;;;21.31;66.83
59487;BME280;45298;54.918;73.504;2022-07-06T13:13:26;99200.66;;;21.18;66.99
59487;BME280;45298;54.918;73.504;2022-07-06T13:15:55;99190.69;;;21.19;67.35
59487;BME280;45298;54.918;73.504;2022-07-06T13:18:24;99203.91;;;21.28;67.28
59487;BME280;45298;54.918;73.504;2022-07-06T13:20:53;99206.97;;;21.40;67.37
59487;BME280;45298;54.918;73.504;2022-07-06T13:23:21;99208.28;;;21.44;67.14
59487;BME280;45298;54.918;73.504;2022-07-06T13:25:51;99208.81;;;21.40;66.85
59487;BME280;45298;54.918;73.504;2022-07-06T13:28:20;99213.03;;;21.42;66.81